sensor_id;sensor_type;location;lat;lon;timestamp;P1;durP1;ratioP1;P2;durP2;ratioP2
11303;SDS011;5707;49.588;12.148;2022-11-15T00:00:44;7.97;;;7.32;;
11303;SDS011;5707;49.588;12.148;2022-11-15T00:03:09;7.43;;;6.90;;
11303;SDS011;5707;49.588;12.148;2022-11-15T00:05:37;8.48;;;7.88;;
11303;SDS011;5707;49.588;12.148;2022-11-15T00:08:03;8.07;;;7.47;;
11303;SDS011;5707;49.588;12.148;2022-11-15T00:10:29;9.02;;;7.00;;
11303;SDS011;5707;49.588;12.148;2022-11-15T00:12:54;7.38;;;6.78;;
11303;SDS011;5707;49.588;12.148;2022-11-15T00:15:20;8.10;;;7.50;;
11303;SDS011;5707;49.588;12.148;2022-11-15T00:17:48;8.15;;;7.57;;
11303;SDS011;5707;49.588;12.148;2022-11-15T00:20:14;9.13;;;8.20;;
11303;SDS011;5707;49.588;12.148;2022-11-15T00:22:40;10.63;;;9.63;;
11303;SDS011;5707;49.588;12.148;2022-11-15T00:25:05;9.32;;;8.57;;
11303;SDS011;5707;49.588;12.148;2022-11-15T00:27:31;8.82;;;7.95;;
11303;SDS011;5707;49.588;12.148;2022-11-15T00:29:57;9.35;;;8.65;;
11303;SDS011;5707;49.588;12.148;2022-11-15T00:32:22;9.15;;;8.45;;
11303;SDS011;5707;49.588;12.148;2022-11-15T00:34:48;7.85;;;7.32;;
11303;SDS011;5707;49.588;12.148;2022-11-15T00:37:14;8.93;;;8.27;;
11303;SDS011;5707;49.588;12.148;2022-11-15T00:39:39;8.82;;;8.15;;
11303;SDS011;5707;49.588;12.148;2022-11-15T00:42:05;8.15;;;7.55;;
11303;SDS011;5707;49.588;12.148;2022-11-15T00:44:30;8.70;;;7.93;;
11303;SDS011;5707;49.588;12.148;2022-11-15T00:46:56;8.45;;;7.75;;
11303;SDS011;5707;49.588;12.148;2022-11-15T00:49:22;8.48;;;7.68;;
11303;SDS011;5707;49.588;12.148;2022-11-15T00:51:47;8.10;;;7.50;;
11303;SDS011;5707;49.588;12.148;2022-11-15T00:54:13;8.00;;;7.40;;
11303;SDS011;5707;49.588;12.148;2022-11-15T00:56:38;8.38;;;7.68;;
11303;SDS011;5707;49.588;12.148;2022-11-15T00:59:04;8.38;;;7.68;;
11303;SDS011;5707;49.588;12.148;2022-11-15T01:01:30;6.63;;;6.03;;
11303;SDS011;5707;49.588;12.148;2022-11-15T01:03:55;7.68;;;7.07;;
11303;SDS011;5707;49.588;12.148;2022-11-15T01:06:21;8.98;;;8.27;;
11303;SDS011;5707;49.588;12.148;2022-11-15T01:08:47;8.55;;;7.95;;
11303;SDS011;5707;49.588;12.148;2022-11-15T01:11:12;8.80;;;8.10;;
11303;SDS011;5707;49.588;12.148;2022-11-15T01:13:38;8.50;;;7.90;;
11303;SDS011;5707;49.588;12.148;2022-11-15T01:16:14;7.88;;;7.20;;
11303;SDS011;5707;49.588;12.148;2022-11-15T01:18:42;8.30;;;7.60;;
11303;SDS011;5707;49.588;12.148;2022-11-15T01:21:10;8.00;;;7.30;;
11303;SDS011;5707;49.588;12.148;2022-11-15T01:23:37;8.30;;;7.57;;
11303;SDS011;5707;49.588;12.148;2022-11-15T01:26:04;8.50;;;7.80;;
11303;SDS011;5707;49.588;12.148;2022-11-15T01:28:31;7.45;;;6.95;;
11303;SDS011;5707;49.588;12.148;2022-11-15T01:30:59;7.63;;;7.03;;
11303;SDS011;5707;49.588;12.148;2022-11-15T01:33:30;7.65;;;7.05;;
11303;SDS011;5707;49.588;12.148;2022-11-15T01:35:55;7.78;;;7.25;;
11303;SDS011;5707;49.588;12.148;2022-11-15T01:38:22;8.15;;;7.47;;
11303;SDS011;5707;49.588;12.148;2022-11-15T01:40:48;8.25;;;7.65;;
11303;SDS011;5707;49.588;12.148;2022-11-15T01:46:00;8.00;;;7.40;;
11303;SDS011;5707;49.588;12.148;2022-11-15T01:48:28;7.93;;;7.18;;
11303;SDS011;5707;49.588;12.148;2022-11-15T01:50:58;7.90;;;7.22;;
11303;SDS011;5707;49.588;12.148;2022-11-15T01:53:26;7.85;;;7.22;;
11303;SDS011;5707;49.588;12.148;2022-11-15T01:55:52;7.78;;;7.18;;
11303;SDS011;5707;49.588;12.148;2022-11-15T01:58:18;8.10;;;7.50;;
11303;SDS011;5707;49.588;12.148;2022-11-15T02:00:44;7.90;;;7.40;;
11303;SDS011;5707;49.588;12.148;2022-11-15T02:03:10;7.63;;;7.10;;
11303;SDS011;5707;49.588;12.148;2022-11-15T02:05:36;7.82;;;7.22;;
11303;SDS011;5707;49.588;12.148;2022-11-15T02:08:02;7.50;;;6.90;;
11303;SDS011;5707;49.588;12.148;2022-11-15T02:10:28;8.00;;;7.30;;
11303;SDS011;5707;49.588;12.148;2022-11-15T02:12:54;7.47;;;6.78;;
11303;SDS011;5707;49.588;12.148;2022-11-15T02:15:23;15.60;;;13.25;;
11303;SDS011;5707;49.588;12.148;2022-11-15T02:17:59;15.18;;;12.57;;
11303;SDS011;5707;49.588;12.148;2022-11-15T02:20:51;16.20;;;13.00;;
11303;SDS011;5707;49.588;12.148;2022-11-15T02:32:04;8.23;;;7.47;;
11303;SDS011;5707;49.588;12.148;2022-11-15T02:37:39;12.05;;;10.77;;
11303;SDS011;5707;49.588;12.148;2022-11-15T02:42:57;11.70;;;9.02;;
11303;SDS011;5707;49.588;12.148;2022-11-15T02:45:50;8.93;;;8.23;;
11303;SDS011;5707;49.588;12.148;2022-11-15T02:48:21;9.20;;;8.48;;
11303;SDS011;5707;49.588;12.148;2022-11-15T02:50:50;8.60;;;7.80;;
11303;SDS011;5707;49.588;12.148;2022-11-15T02:53:17;8.93;;;8.13;;
11303;SDS011;5707;49.588;12.148;2022-11-15T02:55:48;8.60;;;7.93;;
11303;SDS011;5707;49.588;12.148;2022-11-15T02:58:23;9.65;;;8.90;;
11303;SDS011;5707;49.588;12.148;2022-11-15T03:07:01;9.07;;;8.35;;
11303;SDS011;5707;49.588;12.148;2022-11-15T03:12:27;8.80;;;8.13;;
11303;SDS011;5707;49.588;12.148;2022-11-15T03:18:30;7.47;;;6.88;;
11303;SDS011;5707;49.588;12.148;2022-11-15T03:21:00;7.60;;;6.90;;
11303;SDS011;5707;49.588;12.148;2022-11-15T03:23:30;8.38;;;7.78;;
11303;SDS011;5707;49.588;12.148;2022-11-15T03:25:57;8.25;;;7.57;;
11303;SDS011;5707;49.588;12.148;2022-11-15T03:28:32;8.07;;;7.47;;
11303;SDS011;5707;49.588;12.148;2022-11-15T03:31:01;8.02;;;7.43;;
11303;SDS011;5707;49.588;12.148;2022-11-15T03:33:50;8.07;;;7.28;;
11303;SDS011;5707;49.588;12.148;2022-11-15T03:36:20;7.65;;;6.95;;
11303;SDS011;5707;49.588;12.148;2022-11-15T03:38:48;8.00;;;7.40;;
11303;SDS011;5707;49.588;12.148;2022-11-15T03:41:21;8.57;;;7.78;;
11303;SDS011;5707;49.588;12.148;2022-11-15T03:43:52;7.53;;;7.00;;
11303;SDS011;5707;49.588;12.148;2022-11-15T03:46:51;7.63;;;7.05;;
11303;SDS011;5707;49.588;12.148;2022-11-15T03:49:40;8.27;;;7.57;;
11303;SDS011;5707;49.588;12.148;2022-11-15T03:52:10;8.15;;;7.35;;
11303;SDS011;5707;49.588;12.148;2022-11-15T03:54:36;7.95;;;7.25;;
11303;SDS011;5707;49.588;12.148;2022-11-15T03:57:02;8.57;;;7.78;;
11303;SDS011;5707;49.588;12.148;2022-11-15T03:59:28;8.73;;;8.02;;
11303;SDS011;5707;49.588;12.148;2022-11-15T04:01:53;8.50;;;7.78;;
11303;SDS011;5707;49.588;12.148;2022-11-15T04:04:19;8.95;;;8.15;;
11303;SDS011;5707;49.588;12.148;2022-11-15T04:06:44;9.18;;;8.38;;
11303;SDS011;5707;49.588;12.148;2022-11-15T04:09:10;8.45;;;7.75;;
11303;SDS011;5707;49.588;12.148;2022-11-15T04:11:36;7.72;;;7.15;;
11303;SDS011;5707;49.588;12.148;2022-11-15T04:14:01;8.38;;;7.68;;
11303;SDS011;5707;49.588;12.148;2022-11-15T04:16:27;7.53;;;7.03;;
11303;SDS011;5707;49.588;12.148;2022-11-15T04:18:53;8.00;;;7.30;;
11303;SDS011;5707;49.588;12.148;2022-11-15T04:21:38;8.05;;;7.28;;
11303;SDS011;5707;49.588;12.148;2022-11-15T04:24:22;8.60;;;7.90;;
11303;SDS011;5707;49.588;12.148;2022-11-15T04:26:48;9.32;;;6.15;;
11303;SDS011;5707;49.588;12.148;2022-11-15T04:29:14;9.00;;;7.75;;
11303;SDS011;5707;49.588;12.148;2022-11-15T04:31:58;10.80;;;9.68;;
11303;SDS011;5707;49.588;12.148;2022-11-15T04:34:24;10.55;;;9.73;;
11303;SDS011;5707;49.588;12.148;2022-11-15T04:36:50;10.63;;;9.73;;
11303;SDS011;5707;49.588;12.148;2022-11-15T04:39:34;9.27;;;8.57;;
11303;SDS011;5707;49.588;12.148;2022-11-15T04:42:00;9.00;;;8.30;;
11303;SDS011;5707;49.588;12.148;2022-11-15T04:44:25;10.80;;;8.45;;
11303;SDS011;5707;49.588;12.148;2022-11-15T04:46:51;8.63;;;7.90;;
11303;SDS011;5707;49.588;12.148;2022-11-15T04:49:16;8.93;;;8.13;;
11303;SDS011;5707;49.588;12.148;2022-11-15T04:51:42;9.02;;;8.32;;
11303;SDS011;5707;49.588;12.148;2022-11-15T04:54:08;9.95;;;8.88;;
11303;SDS011;5707;49.588;12.148;2022-11-15T04:56:33;6.65;;;6.15;;
11303;SDS011;5707;49.588;12.148;2022-11-15T04:58:59;6.97;;;6.38;;
11303;SDS011;5707;49.588;12.148;2022-11-15T05:01:25;6.30;;;5.90;;
11303;SDS011;5707;49.588;12.148;2022-11-15T05:03:50;6.35;;;5.75;;
11303;SDS011;5707;49.588;12.148;2022-11-15T05:06:34;6.95;;;6.45;;
11303;SDS011;5707;49.588;12.148;2022-11-15T05:09:00;7.40;;;6.88;;
11303;SDS011;5707;49.588;12.148;2022-11-15T05:11:26;7.82;;;7.32;;
11303;SDS011;5707;49.588;12.148;2022-11-15T05:13:52;7.18;;;6.68;;
11303;SDS011;5707;49.588;12.148;2022-11-15T05:16:18;7.13;;;6.63;;
11303;SDS011;5707;49.588;12.148;2022-11-15T05:18:44;7.25;;;6.60;;
11303;SDS011;5707;49.588;12.148;2022-11-15T05:21:12;7.80;;;7.20;;
11303;SDS011;5707;49.588;12.148;2022-11-15T05:23:39;6.97;;;6.38;;
11303;SDS011;5707;49.588;12.148;2022-11-15T05:26:05;7.10;;;6.60;;
11303;SDS011;5707;49.588;12.148;2022-11-15T05:28:32;7.88;;;7.38;;
11303;SDS011;5707;49.588;12.148;2022-11-15T05:33:51;7.63;;;7.13;;
11303;SDS011;5707;49.588;12.148;2022-11-15T05:36:25;7.97;;;7.43;;
11303;SDS011;5707;49.588;12.148;2022-11-15T05:38:56;9.23;;;8.45;;
11303;SDS011;5707;49.588;12.148;2022-11-15T05:41:26;7.78;;;6.95;;
11303;SDS011;5707;49.588;12.148;2022-11-15T05:43:58;9.68;;;8.60;;
11303;SDS011;5707;49.588;12.148;2022-11-15T05:46:24;8.52;;;7.60;;
11303;SDS011;5707;49.588;12.148;2022-11-15T05:48:50;7.80;;;7.13;;
11303;SDS011;5707;49.588;12.148;2022-11-15T05:51:18;7.80;;;7.20;;
11303;SDS011;5707;49.588;12.148;2022-11-15T05:53:46;11.55;;;7.38;;
11303;SDS011;5707;49.588;12.148;2022-11-15T05:56:13;7.28;;;6.75;;
11303;SDS011;5707;49.588;12.148;2022-11-15T05:58:39;9.52;;;8.05;;
11303;SDS011;5707;49.588;12.148;2022-11-15T06:01:05;9.82;;;8.85;;
11303;SDS011;5707;49.588;12.148;2022-11-15T06:03:31;10.18;;;9.20;;
11303;SDS011;5707;49.588;12.148;2022-11-15T06:05:56;10.50;;;9.50;;
11303;SDS011;5707;49.588;12.148;2022-11-15T06:08:22;8.77;;;7.97;;
11303;SDS011;5707;49.588;12.148;2022-11-15T06:10:48;8.35;;;7.65;;
11303;SDS011;5707;49.588;12.148;2022-11-15T06:13:13;11.43;;;8.00;;
11303;SDS011;5707;49.588;12.148;2022-11-15T06:15:39;14.43;;;8.98;;
11303;SDS011;5707;49.588;12.148;2022-11-15T06:18:05;16.13;;;10.18;;
11303;SDS011;5707;49.588;12.148;2022-11-15T06:20:30;11.52;;;9.25;;
11303;SDS011;5707;49.588;12.148;2022-11-15T06:22:57;8.20;;;7.53;;
11303;SDS011;5707;49.588;12.148;2022-11-15T06:25:24;8.38;;;7.78;;
11303;SDS011;5707;49.588;12.148;2022-11-15T06:27:53;9.27;;;8.57;;
11303;SDS011;5707;49.588;12.148;2022-11-15T06:30:20;16.38;;;14.88;;
11303;SDS011;5707;49.588;12.148;2022-11-15T06:32:47;10.35;;;9.55;;
11303;SDS011;5707;49.588;12.148;2022-11-15T06:35:13;8.07;;;7.47;;
11303;SDS011;5707;49.588;12.148;2022-11-15T06:37:39;6.57;;;6.18;;
11303;SDS011;5707;49.588;12.148;2022-11-15T06:40:06;8.15;;;7.45;;
11303;SDS011;5707;49.588;12.148;2022-11-15T06:42:32;7.45;;;6.80;;
11303;SDS011;5707;49.588;12.148;2022-11-15T06:44:58;6.60;;;6.00;;
11303;SDS011;5707;49.588;12.148;2022-11-15T06:47:24;9.88;;;6.38;;
11303;SDS011;5707;49.588;12.148;2022-11-15T06:49:49;7.55;;;6.85;;
11303;SDS011;5707;49.588;12.148;2022-11-15T06:52:15;6.50;;;6.05;;
11303;SDS011;5707;49.588;12.148;2022-11-15T06:54:43;7.60;;;6.88;;
11303;SDS011;5707;49.588;12.148;2022-11-15T06:57:09;7.93;;;7.28;;
11303;SDS011;5707;49.588;12.148;2022-11-15T06:59:35;9.57;;;7.20;;
11303;SDS011;5707;49.588;12.148;2022-11-15T07:02:01;6.57;;;6.18;;
11303;SDS011;5707;49.588;12.148;2022-11-15T07:04:27;6.38;;;5.88;;
11303;SDS011;5707;49.588;12.148;2022-11-15T07:06:52;7.43;;;6.97;;
11303;SDS011;5707;49.588;12.148;2022-11-15T07:09:18;8.93;;;7.72;;
11303;SDS011;5707;49.588;12.148;2022-11-15T07:11:44;7.85;;;7.20;;
11303;SDS011;5707;49.588;12.148;2022-11-15T07:14:09;7.05;;;6.40;;
11303;SDS011;5707;49.588;12.148;2022-11-15T07:16:36;7.47;;;6.80;;
11303;SDS011;5707;49.588;12.148;2022-11-15T07:19:02;11.20;;;7.13;;
11303;SDS011;5707;49.588;12.148;2022-11-15T07:21:27;8.10;;;7.45;;
11303;SDS011;5707;49.588;12.148;2022-11-15T07:23:53;8.57;;;7.93;;
11303;SDS011;5707;49.588;12.148;2022-11-15T07:26:19;9.70;;;8.82;;
11303;SDS011;5707;49.588;12.148;2022-11-15T07:28:45;10.25;;;9.40;;
11303;SDS011;5707;49.588;12.148;2022-11-15T07:31:11;11.52;;;9.68;;
11303;SDS011;5707;49.588;12.148;2022-11-15T07:33:36;10.25;;;9.45;;
11303;SDS011;5707;49.588;12.148;2022-11-15T07:36:02;11.63;;;10.70;;
11303;SDS011;5707;49.588;12.148;2022-11-15T07:38:30;11.90;;;10.88;;
11303;SDS011;5707;49.588;12.148;2022-11-15T07:41:00;12.77;;;11.85;;
11303;SDS011;5707;49.588;12.148;2022-11-15T07:43:26;15.20;;;13.68;;
11303;SDS011;5707;49.588;12.148;2022-11-15T07:45:53;16.92;;;15.63;;
11303;SDS011;5707;49.588;12.148;2022-11-15T07:48:19;20.77;;;18.85;;
11303;SDS011;5707;49.588;12.148;2022-11-15T07:50:44;17.73;;;16.25;;
11303;SDS011;5707;49.588;12.148;2022-11-15T07:53:10;13.98;;;12.73;;
11303;SDS011;5707;49.588;12.148;2022-11-15T07:55:36;10.13;;;9.30;;
11303;SDS011;5707;49.588;12.148;2022-11-15T07:58:02;9.95;;;9.20;;
11303;SDS011;5707;49.588;12.148;2022-11-15T08:00:30;10.20;;;9.45;;
11303;SDS011;5707;49.588;12.148;2022-11-15T08:03:12;9.55;;;8.85;;
11303;SDS011;5707;49.588;12.148;2022-11-15T08:05:39;9.77;;;9.05;;
11303;SDS011;5707;49.588;12.148;2022-11-15T08:08:07;8.90;;;8.30;;
11303;SDS011;5707;49.588;12.148;2022-11-15T08:10:34;9.18;;;8.57;;
11303;SDS011;5707;49.588;12.148;2022-11-15T08:13:03;7.90;;;7.30;;
11303;SDS011;5707;49.588;12.148;2022-11-15T08:15:31;7.45;;;6.85;;
11303;SDS011;5707;49.588;12.148;2022-11-15T08:17:58;6.63;;;5.95;;
11303;SDS011;5707;49.588;12.148;2022-11-15T08:20:25;7.38;;;6.68;;
11303;SDS011;5707;49.588;12.148;2022-11-15T08:22:54;8.40;;;7.63;;
11303;SDS011;5707;49.588;12.148;2022-11-15T08:25:24;6.63;;;6.03;;
11303;SDS011;5707;49.588;12.148;2022-11-15T08:27:52;8.27;;;7.43;;
11303;SDS011;5707;49.588;12.148;2022-11-15T08:30:18;7.18;;;6.57;;
11303;SDS011;5707;49.588;12.148;2022-11-15T08:32:44;8.38;;;7.53;;
11303;SDS011;5707;49.588;12.148;2022-11-15T08:35:10;8.57;;;7.88;;
11303;SDS011;5707;49.588;12.148;2022-11-15T08:37:36;8.45;;;7.70;;
11303;SDS011;5707;49.588;12.148;2022-11-15T08:40:02;8.25;;;7.50;;
11303;SDS011;5707;49.588;12.148;2022-11-15T08:42:28;8.05;;;7.32;;
11303;SDS011;5707;49.588;12.148;2022-11-15T08:44:53;11.00;;;7.93;;
11303;SDS011;5707;49.588;12.148;2022-11-15T08:47:19;7.72;;;7.20;;
11303;SDS011;5707;49.588;12.148;2022-11-15T08:49:45;7.60;;;7.00;;
11303;SDS011;5707;49.588;12.148;2022-11-15T08:52:10;8.73;;;7.82;;
11303;SDS011;5707;49.588;12.148;2022-11-15T08:54:36;10.80;;;8.27;;
11303;SDS011;5707;49.588;12.148;2022-11-15T08:57:02;8.15;;;7.38;;
11303;SDS011;5707;49.588;12.148;2022-11-15T08:59:27;7.68;;;7.05;;
11303;SDS011;5707;49.588;12.148;2022-11-15T09:01:53;7.63;;;6.88;;
11303;SDS011;5707;49.588;12.148;2022-11-15T09:04:19;8.10;;;7.30;;
11303;SDS011;5707;49.588;12.148;2022-11-15T09:06:45;7.40;;;6.80;;
11303;SDS011;5707;49.588;12.148;2022-11-15T09:09:10;7.50;;;6.88;;
11303;SDS011;5707;49.588;12.148;2022-11-15T09:11:36;5.57;;;5.18;;
11303;SDS011;5707;49.588;12.148;2022-11-15T09:14:02;5.60;;;5.20;;
11303;SDS011;5707;49.588;12.148;2022-11-15T09:16:28;6.07;;;5.28;;
11303;SDS011;5707;49.588;12.148;2022-11-15T09:18:55;7.25;;;6.75;;
11303;SDS011;5707;49.588;12.148;2022-11-15T09:21:21;8.10;;;7.20;;
11303;SDS011;5707;49.588;12.148;2022-11-15T09:23:49;13.80;;;7.40;;
11303;SDS011;5707;49.588;12.148;2022-11-15T09:26:16;9.57;;;7.07;;
11303;SDS011;5707;49.588;12.148;2022-11-15T09:28:42;8.65;;;6.90;;
11303;SDS011;5707;49.588;12.148;2022-11-15T09:31:08;8.02;;;7.13;;
11303;SDS011;5707;49.588;12.148;2022-11-15T09:33:34;8.20;;;6.75;;
11303;SDS011;5707;49.588;12.148;2022-11-15T09:36:01;10.20;;;7.55;;
11303;SDS011;5707;49.588;12.148;2022-11-15T09:38:36;7.93;;;7.22;;
11303;SDS011;5707;49.588;12.148;2022-11-15T09:48:49;6.20;;;5.80;;
11303;SDS011;5707;49.588;12.148;2022-11-15T09:51:21;6.43;;;5.93;;
11303;SDS011;5707;49.588;12.148;2022-11-15T09:56:25;7.07;;;6.57;;
11303;SDS011;5707;49.588;12.148;2022-11-15T09:58:56;7.45;;;6.85;;
11303;SDS011;5707;49.588;12.148;2022-11-15T10:04:35;7.32;;;6.72;;
11303;SDS011;5707;49.588;12.148;2022-11-15T10:09:51;6.80;;;6.10;;
11303;SDS011;5707;49.588;12.148;2022-11-15T10:12:41;8.50;;;6.15;;
11303;SDS011;5707;49.588;12.148;2022-11-15T10:15:11;10.95;;;7.50;;
11303;SDS011;5707;49.588;12.148;2022-11-15T10:20:48;11.50;;;7.10;;
11303;SDS011;5707;49.588;12.148;2022-11-15T10:23:15;13.82;;;7.78;;
11303;SDS011;5707;49.588;12.148;2022-11-15T10:25:43;7.70;;;7.07;;
11303;SDS011;5707;49.588;12.148;2022-11-15T10:30:54;9.27;;;6.95;;
11303;SDS011;5707;49.588;12.148;2022-11-15T10:36:32;8.27;;;6.88;;
11303;SDS011;5707;49.588;12.148;2022-11-15T10:41:18;7.80;;;7.15;;
11303;SDS011;5707;49.588;12.148;2022-11-15T10:44:01;7.78;;;7.03;;
11303;SDS011;5707;49.588;12.148;2022-11-15T10:46:40;7.05;;;6.55;;
11303;SDS011;5707;49.588;12.148;2022-11-15T10:49:14;11.32;;;7.30;;
11303;SDS011;5707;49.588;12.148;2022-11-15T10:51:45;8.82;;;7.85;;
11303;SDS011;5707;49.588;12.148;2022-11-15T10:54:12;14.10;;;9.15;;
11303;SDS011;5707;49.588;12.148;2022-11-15T10:56:41;19.13;;;8.98;;
11303;SDS011;5707;49.588;12.148;2022-11-15T10:59:14;9.90;;;8.70;;
11303;SDS011;5707;49.588;12.148;2022-11-15T11:01:47;8.32;;;7.13;;
11303;SDS011;5707;49.588;12.148;2022-11-15T11:04:13;10.07;;;6.25;;
11303;SDS011;5707;49.588;12.148;2022-11-15T11:06:49;7.97;;;5.90;;
11303;SDS011;5707;49.588;12.148;2022-11-15T11:09:36;6.63;;;6.13;;
11303;SDS011;5707;49.588;12.148;2022-11-15T11:12:04;6.28;;;5.78;;
11303;SDS011;5707;49.588;12.148;2022-11-15T11:14:35;6.40;;;5.93;;
11303;SDS011;5707;49.588;12.148;2022-11-15T11:28:46;5.88;;;5.35;;
11303;SDS011;5707;49.588;12.148;2022-11-15T11:40:03;4.25;;;3.95;;
11303;SDS011;5707;49.588;12.148;2022-11-15T11:50:50;4.75;;;4.20;;
11303;SDS011;5707;49.588;12.148;2022-11-15T11:53:36;4.57;;;4.18;;
11303;SDS011;5707;49.588;12.148;2022-11-15T11:56:19;4.28;;;3.97;;
11303;SDS011;5707;49.588;12.148;2022-11-15T11:58:54;3.90;;;3.55;;
11303;SDS011;5707;49.588;12.148;2022-11-15T12:01:26;4.30;;;4.00;;
11303;SDS011;5707;49.588;12.148;2022-11-15T12:04:08;3.70;;;3.42;;
11303;SDS011;5707;49.588;12.148;2022-11-15T12:06:49;3.22;;;3.03;;
11303;SDS011;5707;49.588;12.148;2022-11-15T12:14:56;4.18;;;3.88;;
11303;SDS011;5707;49.588;12.148;2022-11-15T12:17:26;4.28;;;3.97;;
11303;SDS011;5707;49.588;12.148;2022-11-15T12:20:02;4.65;;;4.25;;
11303;SDS011;5707;49.588;12.148;2022-11-15T12:22:44;4.05;;;3.65;;
11303;SDS011;5707;49.588;12.148;2022-11-15T12:25:22;3.78;;;3.47;;
11303;SDS011;5707;49.588;12.148;2022-11-15T12:30:49;3.20;;;2.90;;
11303;SDS011;5707;49.588;12.148;2022-11-15T12:36:11;2.63;;;2.42;;
11303;SDS011;5707;49.588;12.148;2022-11-15T12:41:26;2.28;;;2.15;;
11303;SDS011;5707;49.588;12.148;2022-11-15T12:43:52;1.88;;;1.77;;
11303;SDS011;5707;49.588;12.148;2022-11-15T12:46:20;2.70;;;2.50;;
11303;SDS011;5707;49.588;12.148;2022-11-15T12:48:53;2.17;;;2.08;;
11303;SDS011;5707;49.588;12.148;2022-11-15T12:59:50;2.00;;;1.90;;
11303;SDS011;5707;49.588;12.148;2022-11-15T13:02:18;2.22;;;2.13;;
11303;SDS011;5707;49.588;12.148;2022-11-15T13:04:49;1.95;;;1.85;;
11303;SDS011;5707;49.588;12.148;2022-11-15T13:10:01;2.40;;;2.20;;
11303;SDS011;5707;49.588;12.148;2022-11-15T13:17:43;2.35;;;2.05;;
11303;SDS011;5707;49.588;12.148;2022-11-15T13:20:17;2.05;;;1.92;;
11303;SDS011;5707;49.588;12.148;2022-11-15T13:30:54;2.33;;;1.55;;
11303;SDS011;5707;49.588;12.148;2022-11-15T13:33:30;3.22;;;1.63;;
11303;SDS011;5707;49.588;12.148;2022-11-15T13:35:59;2.28;;;1.60;;
11303;SDS011;5707;49.588;12.148;2022-11-15T13:38:29;1.30;;;1.20;;
11303;SDS011;5707;49.588;12.148;2022-11-15T13:40:58;1.67;;;1.40;;
11303;SDS011;5707;49.588;12.148;2022-11-15T13:48:32;2.63;;;1.30;;
11303;SDS011;5707;49.588;12.148;2022-11-15T13:50:59;1.40;;;1.30;;
11303;SDS011;5707;49.588;12.148;2022-11-15T13:53:46;1.60;;;1.50;;
11303;SDS011;5707;49.588;12.148;2022-11-15T13:56:16;3.53;;;1.30;;
11303;SDS011;5707;49.588;12.148;2022-11-15T13:58:45;4.03;;;1.33;;
11303;SDS011;5707;49.588;12.148;2022-11-15T14:01:14;1.25;;;1.15;;
11303;SDS011;5707;49.588;12.148;2022-11-15T14:03:47;1.00;;;1.00;;
11303;SDS011;5707;49.588;12.148;2022-11-15T14:06:22;1.17;;;1.08;;
11303;SDS011;5707;49.588;12.148;2022-11-15T14:09:00;1.65;;;1.52;;
11303;SDS011;5707;49.588;12.148;2022-11-15T14:11:35;1.63;;;1.30;;
11303;SDS011;5707;49.588;12.148;2022-11-15T14:16:43;1.27;;;1.20;;
11303;SDS011;5707;49.588;12.148;2022-11-15T14:19:56;1.30;;;1.20;;
11303;SDS011;5707;49.588;12.148;2022-11-15T14:25:04;1.33;;;1.15;;
11303;SDS011;5707;49.588;12.148;2022-11-15T14:27:38;2.17;;;1.75;;
11303;SDS011;5707;49.588;12.148;2022-11-15T14:30:04;2.65;;;1.60;;
11303;SDS011;5707;49.588;12.148;2022-11-15T14:33:11;1.90;;;1.40;;
11303;SDS011;5707;49.588;12.148;2022-11-15T14:35:22;2.03;;;1.88;;
11303;SDS011;5707;49.588;12.148;2022-11-15T14:37:48;2.08;;;1.92;;
11303;SDS011;5707;49.588;12.148;2022-11-15T14:40:16;1.77;;;1.52;;
11303;SDS011;5707;49.588;12.148;2022-11-15T14:42:47;2.10;;;1.17;;
11303;SDS011;5707;49.588;12.148;2022-11-15T14:45:15;1.98;;;1.60;;
11303;SDS011;5707;49.588;12.148;2022-11-15T14:47:45;1.85;;;1.70;;
11303;SDS011;5707;49.588;12.148;2022-11-15T14:50:15;2.72;;;1.90;;
11303;SDS011;5707;49.588;12.148;2022-11-15T14:52:43;2.13;;;2.00;;
11303;SDS011;5707;49.588;12.148;2022-11-15T14:55:23;2.92;;;2.03;;
11303;SDS011;5707;49.588;12.148;2022-11-15T14:57:52;1.95;;;1.85;;
11303;SDS011;5707;49.588;12.148;2022-11-15T15:00:18;1.80;;;1.70;;
11303;SDS011;5707;49.588;12.148;2022-11-15T15:02:44;1.95;;;1.60;;
11303;SDS011;5707;49.588;12.148;2022-11-15T15:07:48;1.77;;;1.67;;
11303;SDS011;5707;49.588;12.148;2022-11-15T15:10:15;1.90;;;1.80;;
11303;SDS011;5707;49.588;12.148;2022-11-15T15:12:41;1.95;;;1.30;;
11303;SDS011;5707;49.588;12.148;2022-11-15T15:15:15;1.88;;;1.75;;
11303;SDS011;5707;49.588;12.148;2022-11-15T15:17:42;2.50;;;1.92;;
11303;SDS011;5707;49.588;12.148;2022-11-15T15:20:09;2.40;;;2.30;;
11303;SDS011;5707;49.588;12.148;2022-11-15T15:22:35;3.03;;;2.13;;
11303;SDS011;5707;49.588;12.148;2022-11-15T15:25:02;3.30;;;3.00;;
11303;SDS011;5707;49.588;12.148;2022-11-15T15:27:29;2.67;;;2.47;;
11303;SDS011;5707;49.588;12.148;2022-11-15T15:29:54;4.13;;;3.72;;
11303;SDS011;5707;49.588;12.148;2022-11-15T15:32:20;4.38;;;3.97;;
11303;SDS011;5707;49.588;12.148;2022-11-15T15:34:46;5.75;;;4.97;;
11303;SDS011;5707;49.588;12.148;2022-11-15T15:37:22;6.53;;;6.00;;
11303;SDS011;5707;49.588;12.148;2022-11-15T15:39:50;7.65;;;6.82;;
11303;SDS011;5707;49.588;12.148;2022-11-15T15:42:20;6.57;;;5.93;;
11303;SDS011;5707;49.588;12.148;2022-11-15T15:44:47;4.60;;;4.20;;
11303;SDS011;5707;49.588;12.148;2022-11-15T15:47:22;3.88;;;3.50;;
11303;SDS011;5707;49.588;12.148;2022-11-15T15:49:49;6.07;;;5.57;;
11303;SDS011;5707;49.588;12.148;2022-11-15T15:52:15;4.43;;;4.07;;
11303;SDS011;5707;49.588;12.148;2022-11-15T15:54:41;3.55;;;3.30;;
11303;SDS011;5707;49.588;12.148;2022-11-15T15:57:07;3.10;;;2.67;;
11303;SDS011;5707;49.588;12.148;2022-11-15T15:59:36;5.40;;;4.90;;
11303;SDS011;5707;49.588;12.148;2022-11-15T16:02:02;3.95;;;3.20;;
11303;SDS011;5707;49.588;12.148;2022-11-15T16:04:28;3.60;;;3.00;;
11303;SDS011;5707;49.588;12.148;2022-11-15T16:06:58;2.65;;;2.45;;
11303;SDS011;5707;49.588;12.148;2022-11-15T16:09:24;4.35;;;3.08;;
11303;SDS011;5707;49.588;12.148;2022-11-15T16:12:08;2.80;;;2.60;;
11303;SDS011;5707;49.588;12.148;2022-11-15T16:14:34;2.78;;;2.67;;
11303;SDS011;5707;49.588;12.148;2022-11-15T16:17:00;2.80;;;2.60;;
11303;SDS011;5707;49.588;12.148;2022-11-15T16:19:26;2.80;;;2.60;;
11303;SDS011;5707;49.588;12.148;2022-11-15T16:21:51;2.67;;;2.47;;
11303;SDS011;5707;49.588;12.148;2022-11-15T16:24:18;2.72;;;2.53;;
11303;SDS011;5707;49.588;12.148;2022-11-15T16:26:44;2.15;;;2.05;;
11303;SDS011;5707;49.588;12.148;2022-11-15T16:29:10;2.72;;;2.53;;
11303;SDS011;5707;49.588;12.148;2022-11-15T16:31:36;2.70;;;2.50;;
11303;SDS011;5707;49.588;12.148;2022-11-15T16:34:02;2.58;;;2.47;;
11303;SDS011;5707;49.588;12.148;2022-11-15T16:36:30;2.60;;;2.40;;
11303;SDS011;5707;49.588;12.148;2022-11-15T16:38:57;2.67;;;2.47;;
11303;SDS011;5707;49.588;12.148;2022-11-15T16:41:24;2.63;;;2.42;;
11303;SDS011;5707;49.588;12.148;2022-11-15T16:43:50;2.75;;;2.55;;
11303;SDS011;5707;49.588;12.148;2022-11-15T16:46:25;2.70;;;2.60;;
11303;SDS011;5707;49.588;12.148;2022-11-15T16:48:52;2.95;;;2.75;;
11303;SDS011;5707;49.588;12.148;2022-11-15T16:51:18;2.67;;;2.58;;
11303;SDS011;5707;49.588;12.148;2022-11-15T16:53:44;2.83;;;2.67;;
11303;SDS011;5707;49.588;12.148;2022-11-15T16:56:26;3.28;;;3.08;;
11303;SDS011;5707;49.588;12.148;2022-11-15T16:58:53;2.97;;;2.78;;
11303;SDS011;5707;49.588;12.148;2022-11-15T17:01:35;3.00;;;2.80;;
11303;SDS011;5707;49.588;12.148;2022-11-15T17:04:14;2.95;;;2.75;;
11303;SDS011;5707;49.588;12.148;2022-11-15T17:06:42;3.08;;;2.55;;
11303;SDS011;5707;49.588;12.148;2022-11-15T17:09:21;3.08;;;2.65;;
11303;SDS011;5707;49.588;12.148;2022-11-15T17:11:50;2.72;;;2.63;;
11303;SDS011;5707;49.588;12.148;2022-11-15T17:14:17;3.20;;;3.00;;
11303;SDS011;5707;49.588;12.148;2022-11-15T17:16:42;2.50;;;2.40;;